Flight Information

DEPARTURE
ONTARIO, CA
Elevation:
944
Runways:
8L/26R - 12197x150 - CONC-G
8R/26L - 10200x150 - CONC-G
ATIS:
124.25 909-605-0056
Clearance Delivery:
118.1
Ground:
121.9
Tower:
120.6
DESTINATION
,
Elevation:
TPA:
1000 (est.)


6754.1 NM74° True-14° Var59° HDG

Flight Plan:
(click to file on line)

1. Type
2. Aircraft Identification
3. Aircraft Type / Special Equipment
4. True Airspeed
kts
5. Departure Airport
(ICAO code)
6. Arriving Airport
(ICAO code)
7. Cruising Altitude
ft
8. Alternate Airport
(ICAO code)
9. Route of Flight
10. Remarks


00:00:00 Departure ATIS: Destination ATIS:

Clearance Limit:
Route:
Altitude: Expect in minutes
Frequency:
Transponder: (7500 Hijack / 7600 Lost Comms / 7700 Emergency)


KONT 010753Z 00000KT 10SM OVC230 17/08 A2988 RMK AO2 SLP109 T01670078 402560100
Time: 2020-04-01T07:53:00Z
1585728416
Winds: calm
Visibility: 10.0 sm
Clouds (AGL): OVC 23000
Temperature: 16.7 C
Dew Point: 7.8 C
Pressure: 29.878937 in Hgbr


Notes:

Data extracted from FAA Digital Chart Supplement. Effective: 0901Z Thursday, Mar 26, 2020 to 0901Z Thursday, May 21, 2020
Current ATIS data is provided courtisy of PilotEdge.